createdAt,value
2019-02-17T00:00:03.321Z,97519.28
2019-02-17T00:02:33.821Z,97513.95
2019-02-17T00:05:04.801Z,97526.10
2019-02-17T00:07:35.248Z,97517.91
2019-02-17T00:10:06.225Z,97518.00
2019-02-17T00:12:36.699Z,97521.33
2019-02-17T00:15:07.600Z,97518.38
2019-02-17T00:17:38.109Z,97524.08
2019-02-17T00:20:08.490Z,97525.73
2019-02-17T00:22:38.890Z,97524.28
2019-02-17T00:25:09.404Z,97522.08
2019-02-17T00:27:39.854Z,97531.11
2019-02-17T00:30:11.743Z,97525.41
2019-02-17T00:32:42.185Z,97534.06
2019-02-17T00:35:12.577Z,97532.59
2019-02-17T00:37:43.127Z,97530.36
2019-02-17T00:40:13.637Z,97532.59
2019-02-17T00:42:44.273Z,97530.73
2019-02-17T00:45:14.643Z,97527.78
2019-02-17T00:47:45.097Z,97528.81
2019-02-17T00:50:15.536Z,97530.73
2019-02-17T00:52:46.027Z,97529.73
2019-02-17T00:55:16.497Z,97531.30
2019-02-17T00:57:46.987Z,97533.14
2019-02-17T01:00:17.681Z,97527.61
2019-02-17T01:02:48.164Z,97516.75
2019-02-17T01:05:20.397Z,97524.86
2019-02-17T01:07:50.894Z,97523.20
2019-02-17T01:10:21.278Z,97524.75
2019-02-17T01:12:51.656Z,97525.41
2019-02-17T01:15:22.153Z,97519.14
2019-02-17T01:17:52.640Z,97516.77
2019-02-17T01:20:22.935Z,97506.25
2019-02-17T01:22:53.375Z,97509.57
2019-02-17T01:25:23.791Z,97505.70
2019-02-17T01:27:54.131Z,97507.73
2019-02-17T01:30:24.604Z,97504.41
2019-02-17T01:32:55.167Z,97509.56
2019-02-17T01:35:25.748Z,97504.90
2019-02-17T01:37:58.259Z,97500.28
2019-02-17T01:40:28.532Z,97501.66
2019-02-17T01:42:59.042Z,97495.97
2019-02-17T01:45:29.518Z,97496.13
2019-02-17T01:47:59.897Z,97489.44
2019-02-17T01:50:30.357Z,97491.72
2019-02-17T01:53:00.834Z,97488.60
2019-02-17T01:55:31.284Z,97482.88
2019-02-17T01:58:01.857Z,97490.42
2019-02-17T02:00:32.521Z,97482.44
2019-02-17T02:03:02.959Z,97481.23
2019-02-17T02:05:33.424Z,97485.64
2019-02-17T02:08:03.832Z,97481.69
2019-02-17T02:10:34.320Z,97483.61
2019-02-17T02:13:04.787Z,97480.85
2019-02-17T02:15:35.267Z,97480.48
2019-02-17T02:18:05.727Z,97471.92
2019-02-17T02:20:36.236Z,97474.61
2019-02-17T02:23:06.792Z,97470.75
2019-02-17T02:25:37.482Z,97467.88
2019-02-17T02:28:07.926Z,97468.34
2019-02-17T02:30:38.355Z,97472.19
2019-02-17T02:33:08.887Z,97474.59
2019-02-17T02:35:39.393Z,97472.01
2019-02-17T02:38:09.853Z,97466.75
2019-02-17T02:40:40.308Z,97468.33
2019-02-17T02:43:10.759Z,97467.77
2019-02-17T02:45:41.279Z,97467.94
2019-02-17T02:48:11.757Z,97473.28
2019-02-17T02:50:42.188Z,97473.66
2019-02-17T02:53:12.627Z,97478.97
2019-02-17T02:55:43.053Z,97478.95
2019-02-17T02:58:13.602Z,97478.57
2019-02-17T03:00:44.036Z,97478.11
2019-02-17T03:03:14.465Z,97483.10
2019-02-17T03:06:03.816Z,97478.78
2019-02-17T03:08:34.299Z,97477.20
2019-02-17T03:11:04.763Z,97488.41
2019-02-17T03:13:35.318Z,97483.00
2019-02-17T03:16:05.801Z,97479.12
2019-02-17T03:18:36.375Z,97474.88
2019-02-17T03:21:06.729Z,97486.97
2019-02-17T03:23:37.088Z,97482.58
2019-02-17T03:26:07.591Z,97479.09
2019-02-17T03:28:37.915Z,97478.56
2019-02-17T03:31:08.345Z,97471.37
2019-02-17T03:33:38.801Z,97481.13
2019-02-17T03:36:09.166Z,97477.27
2019-02-17T03:38:39.509Z,97478.72
2019-02-17T03:41:10.052Z,97471.72
2019-02-17T03:43:40.724Z,97471.88
2019-02-17T03:46:11.248Z,97474.30
2019-02-17T03:48:41.801Z,97477.78
2019-02-17T03:51:12.560Z,97473.20
2019-02-17T03:53:42.973Z,97478.64
2019-02-17T03:56:13.343Z,97475.42
2019-02-17T03:58:43.755Z,97474.24
2019-02-17T04:01:14.204Z,97464.48
2019-02-17T04:03:44.711Z,97467.97
2019-02-17T04:06:15.173Z,97477.97
2019-02-17T04:08:45.643Z,97470.44
2019-02-17T04:11:16.046Z,97473.55
2019-02-17T04:13:46.596Z,97469.31
2019-02-17T04:16:17.060Z,97474.75
2019-02-17T04:18:47.526Z,97472.53
2019-02-17T04:21:18.031Z,97468.00
2019-02-17T04:23:48.485Z,97473.97
2019-02-17T04:26:18.869Z,97471.86
2019-02-17T04:28:49.280Z,97472.02
2019-02-17T04:31:19.855Z,97465.20
2019-02-17T04:33:50.343Z,97474.77
2019-02-17T04:36:20.831Z,97470.70
2019-02-17T04:38:51.369Z,97483.55
2019-02-17T04:41:21.812Z,97480.45
2019-02-17T04:43:52.384Z,97483.93
2019-02-17T04:46:22.731Z,97484.38
2019-02-17T04:48:53.100Z,97481.52
2019-02-17T04:51:23.656Z,97480.23
2019-02-17T04:53:54.066Z,97486.31
2019-02-17T04:56:24.505Z,97483.89
2019-02-17T04:58:54.943Z,97475.65
2019-02-17T05:01:25.416Z,97473.05
2019-02-17T05:03:55.929Z,97474.33
2019-02-17T05:06:26.371Z,97473.12
2019-02-17T05:08:57.895Z,97482.00
2019-02-17T05:11:28.291Z,97469.68
2019-02-17T05:13:58.798Z,97471.30
2019-02-17T05:16:29.224Z,97471.16
2019-02-17T05:18:59.604Z,97462.87
2019-02-17T05:21:29.986Z,97470.13
2019-02-17T05:24:00.426Z,97476.03
2019-02-17T05:26:30.876Z,97471.19
2019-02-17T05:29:01.249Z,97471.91
2019-02-17T05:31:31.664Z,97473.16
2019-02-17T05:34:02.167Z,97471.48
2019-02-17T05:36:32.544Z,97471.48
2019-02-17T05:39:04.791Z,97475.16
2019-02-17T05:41:35.315Z,97479.31
2019-02-17T05:44:05.771Z,97477.95
2019-02-17T05:46:36.255Z,97472.59
2019-02-17T05:49:06.669Z,97475.72
2019-02-17T05:51:37.197Z,97475.49
2019-02-17T05:54:07.560Z,97481.02
2019-02-17T05:56:38.068Z,97482.30
2019-02-17T05:59:08.618Z,97478.44
2019-02-17T06:01:39.127Z,97482.83
2019-02-17T06:04:09.629Z,97488.15
2019-02-17T06:06:40.235Z,97487.58
2019-02-17T06:09:10.711Z,97486.36
2019-02-17T06:11:41.030Z,97490.30
2019-02-17T06:14:11.477Z,97492.86
2019-02-17T06:16:41.981Z,97493.23
2019-02-17T06:19:12.400Z,97496.19
2019-02-17T06:21:42.906Z,97498.69
2019-02-17T06:24:13.357Z,97499.14
2019-02-17T06:26:43.786Z,97504.62
2019-02-17T06:29:14.284Z,97506.09
2019-02-17T06:31:44.825Z,97509.49
2019-02-17T06:34:19.688Z,97507.90
2019-02-17T06:36:50.181Z,97513.42
2019-02-17T06:39:20.694Z,97510.70
2019-02-17T06:41:51.152Z,97515.08
2019-02-17T06:44:21.624Z,97518.56
2019-02-17T06:46:56.375Z,97513.22
2019-02-17T06:49:26.796Z,97518.73
2019-02-17T06:51:57.133Z,97524.98
2019-02-17T06:54:27.605Z,97525.56
2019-02-17T06:57:05.135Z,97529.84
2019-02-17T06:59:35.545Z,97523.99
2019-02-17T07:02:05.970Z,97514.28
2019-02-17T07:05:01.164Z,97525.25
2019-02-17T07:07:31.811Z,97519.47
2019-02-17T07:10:02.257Z,97525.56
2019-02-17T07:12:32.729Z,97529.19
2019-02-17T07:15:03.151Z,97531.87
2019-02-17T07:17:33.664Z,97532.00
2019-02-17T07:20:04.365Z,97531.81
2019-02-17T07:22:34.733Z,97529.91
2019-02-17T07:25:05.247Z,97529.73
2019-02-17T07:27:35.602Z,97523.44
2019-02-17T07:30:06.128Z,97530.36
2019-02-17T07:32:36.513Z,97531.30
2019-02-17T07:35:07.167Z,97531.33
2019-02-17T07:37:37.656Z,97532.27
2019-02-17T07:40:08.437Z,97539.45
2019-02-17T07:42:38.829Z,97538.94
2019-02-17T07:45:09.607Z,97538.39
2019-02-17T07:47:40.024Z,97540.45
2019-02-17T07:50:10.731Z,97544.52
2019-02-17T07:52:41.122Z,97541.14
2019-02-17T07:55:11.677Z,97546.55
2019-02-17T07:57:42.107Z,97546.76
2019-02-17T08:00:13.279Z,97542.90
2019-02-17T08:02:43.718Z,97542.16
2019-02-17T08:05:14.151Z,97540.33
2019-02-17T08:07:44.715Z,97533.69
2019-02-17T08:10:15.193Z,97532.94
2019-02-17T08:12:45.644Z,97528.31
2019-02-17T08:15:16.216Z,97525.16
2019-02-17T08:17:46.665Z,97528.42
2019-02-17T08:20:17.117Z,97530.22
2019-02-17T08:22:47.464Z,97523.26
2019-02-17T08:25:21.863Z,97526.22
2019-02-17T08:27:50.237Z,97526.56
2019-02-17T08:30:20.718Z,97519.36
2019-02-17T08:32:51.024Z,97515.97
2019-02-17T08:35:21.383Z,97510.24
2019-02-17T08:37:51.898Z,97515.56
2019-02-17T08:40:22.311Z,97504.68
2019-02-17T08:42:52.727Z,97503.33
2019-02-17T08:45:23.139Z,97505.53
2019-02-17T08:47:53.608Z,97498.73
2019-02-17T08:50:23.979Z,97503.63
2019-02-17T08:52:54.414Z,97501.00
2019-02-17T08:55:24.905Z,97499.95
2019-02-17T08:57:55.398Z,97493.08
2019-02-17T09:00:25.871Z,97496.75
2019-02-17T09:02:56.221Z,97498.84
2019-02-17T09:05:26.664Z,97492.38
2019-02-17T09:07:57.119Z,97496.55
2019-02-17T09:10:27.518Z,97496.48
2019-02-17T09:12:57.949Z,97496.25
2019-02-17T09:15:28.271Z,97495.27
2019-02-17T09:17:58.575Z,97494.95
2019-02-17T09:20:28.987Z,97499.70
2019-02-17T09:22:59.425Z,97495.45
2019-02-17T09:25:29.843Z,97500.43
2019-02-17T09:28:00.408Z,97494.16
2019-02-17T09:30:30.862Z,97502.35
2019-02-17T09:33:01.296Z,97494.54
2019-02-17T09:35:31.753Z,97501.87
2019-02-17T09:38:02.194Z,97500.81
2019-02-17T09:40:32.723Z,97500.95
2019-02-17T09:43:03.149Z,97496.53
2019-02-17T09:45:33.569Z,97498.05
2019-02-17T09:48:03.993Z,97500.34
2019-02-17T09:50:34.372Z,97498.23
2019-02-17T09:53:04.796Z,97497.09
2019-02-17T09:55:35.199Z,97495.45
2019-02-17T09:58:05.685Z,97487.13
2019-02-17T10:00:36.106Z,97480.89
2019-02-17T10:03:06.533Z,97487.03
2019-02-17T10:05:36.894Z,97480.37
2019-02-17T10:08:07.350Z,97471.13
2019-02-17T10:10:37.843Z,97481.56
2019-02-17T10:13:08.238Z,97480.70
2019-02-17T10:15:38.568Z,97480.63
2019-02-17T10:18:08.901Z,97480.69
2019-02-17T10:20:39.425Z,97478.54
2019-02-17T10:23:09.817Z,97477.42
2019-02-17T10:25:40.304Z,97477.30
2019-02-17T10:28:10.789Z,97467.80
2019-02-17T10:30:41.222Z,97464.45
2019-02-17T10:33:11.635Z,97467.69
2019-02-17T10:35:42.073Z,97463.61
2019-02-17T10:38:12.578Z,97462.16
2019-02-17T10:40:42.995Z,97467.02
2019-02-17T10:43:13.428Z,97462.20
2019-02-17T10:45:43.896Z,97461.77
2019-02-17T10:48:14.323Z,97460.09
2019-02-17T10:50:44.707Z,97461.86
2019-02-17T10:53:15.165Z,97455.67
2019-02-17T10:55:45.597Z,97453.27
2019-02-17T10:58:16.084Z,97455.39
2019-02-17T11:00:46.521Z,97450.08
2019-02-17T11:03:16.931Z,97447.09
2019-02-17T11:05:47.680Z,97437.88
2019-02-17T11:08:18.111Z,97432.87
2019-02-17T11:10:48.625Z,97426.61
2019-02-17T11:13:19.033Z,97426.31
2019-02-17T11:15:49.474Z,97420.73
2019-02-17T11:18:19.776Z,97416.50
2019-02-17T11:20:50.242Z,97409.31
2019-02-17T11:23:21.184Z,97409.56
2019-02-17T11:25:52.376Z,97408.11
2019-02-17T11:28:22.801Z,97407.95
2019-02-17T11:30:53.864Z,97402.56
2019-02-17T11:33:24.295Z,97403.22
2019-02-17T11:35:55.265Z,97400.27
2019-02-17T11:38:26.098Z,97394.52
2019-02-17T11:40:56.438Z,97395.66
2019-02-17T11:43:27.246Z,97394.37
2019-02-17T11:45:58.100Z,97384.20
2019-02-17T11:48:28.588Z,97381.58
2019-02-17T11:50:59.121Z,97380.42
2019-02-17T11:53:29.630Z,97374.50
2019-02-17T11:56:00.169Z,97373.67
2019-02-17T11:58:30.600Z,97368.67
2019-02-17T12:01:01.038Z,97360.12
2019-02-17T12:03:31.498Z,97362.39
2019-02-17T12:06:01.908Z,97362.36
2019-02-17T12:08:32.403Z,97350.88
2019-02-17T12:11:02.865Z,97348.56
2019-02-17T12:13:33.223Z,97341.53
2019-02-17T12:16:03.770Z,97341.73
2019-02-17T12:18:34.095Z,97341.78
2019-02-17T12:21:24.006Z,97332.08
2019-02-17T12:24:11.580Z,97323.36
2019-02-17T12:26:52.127Z,97324.31
2019-02-17T12:29:33.029Z,97320.36
2019-02-17T12:32:03.543Z,97315.83
2019-02-17T12:34:34.016Z,97309.66
2019-02-17T12:37:04.492Z,97310.77
2019-02-17T12:39:34.966Z,97311.00
2019-02-17T12:42:05.483Z,97303.39
2019-02-17T12:44:35.970Z,97309.72
2019-02-17T12:47:06.395Z,97310.23
2019-02-17T12:49:36.736Z,97303.14
2019-02-17T12:52:07.180Z,97301.41
2019-02-17T12:54:37.569Z,97298.13
2019-02-17T12:57:07.979Z,97300.03
2019-02-17T12:59:38.698Z,97296.34
2019-02-17T13:02:09.144Z,97289.22
2019-02-17T13:04:39.606Z,97287.69
2019-02-17T13:07:10.004Z,97287.69
2019-02-17T13:09:40.480Z,97278.27
2019-02-17T13:12:10.920Z,97277.27
2019-02-17T13:14:41.436Z,97271.09
2019-02-17T13:17:11.859Z,97273.66
2019-02-17T13:19:42.303Z,97270.36
2019-02-17T13:22:12.801Z,97266.16
2019-02-17T13:24:43.142Z,97266.23
2019-02-17T13:27:15.528Z,97264.29
2019-02-17T13:29:45.521Z,97258.73
2019-02-17T13:32:15.967Z,97261.77
2019-02-17T13:34:46.654Z,97262.45
2019-02-17T13:37:17.055Z,97262.55
2019-02-17T13:39:47.441Z,97259.28
2019-02-17T13:42:17.820Z,97248.65
2019-02-17T13:44:48.291Z,97250.59
2019-02-17T13:47:18.814Z,97250.62
2019-02-17T13:49:49.280Z,97247.38
2019-02-17T13:52:19.661Z,97250.41
2019-02-17T13:54:50.078Z,97245.70
2019-02-17T13:57:20.559Z,97244.68
2019-02-17T13:59:50.986Z,97241.96
2019-02-17T14:02:21.301Z,97240.64
2019-02-17T14:04:51.743Z,97241.50
2019-02-17T14:07:22.271Z,97238.58
2019-02-17T14:09:52.737Z,97240.00
2019-02-17T14:12:23.110Z,97238.62
2019-02-17T14:14:53.469Z,97236.86
2019-02-17T14:17:23.878Z,97228.87
2019-02-17T14:19:54.345Z,97233.66
2019-02-17T14:22:24.749Z,97234.03
2019-02-17T14:24:55.253Z,97234.36
2019-02-17T14:27:25.642Z,97233.16
2019-02-17T14:29:55.985Z,97229.09
2019-02-17T14:32:26.419Z,97226.84
2019-02-17T14:34:56.719Z,97226.73
2019-02-17T14:37:27.251Z,97220.45
2019-02-17T14:39:57.695Z,97217.65
2019-02-17T14:42:28.126Z,97215.69
2019-02-17T14:44:58.437Z,97219.53
2019-02-17T14:47:28.890Z,97220.18
2019-02-17T14:49:59.254Z,97210.38
2019-02-17T14:52:29.678Z,97209.57
2019-02-17T14:55:00.050Z,97212.00
2019-02-17T14:57:30.421Z,97209.08
2019-02-17T15:00:00.874Z,97207.93
2019-02-17T15:02:31.240Z,97208.25
2019-02-17T15:05:01.714Z,97208.49
2019-02-17T15:07:32.231Z,97200.38
2019-02-17T15:10:02.600Z,97197.80
2019-02-17T15:12:33.065Z,97197.02
2019-02-17T15:15:03.532Z,97192.26
2019-02-17T15:17:33.814Z,97189.95
2019-02-17T15:20:04.559Z,97190.73
2019-02-17T15:22:35.047Z,97186.13
2019-02-17T15:25:07.406Z,97184.47
2019-02-17T15:27:38.001Z,97190.11
2019-02-17T15:30:11.164Z,97178.62
2019-02-17T15:32:41.611Z,97181.98
2019-02-17T15:35:12.050Z,97188.91
2019-02-17T15:37:42.593Z,97181.39
2019-02-17T15:40:13.354Z,97182.09
2019-02-17T15:42:43.997Z,97181.97
2019-02-17T15:45:14.834Z,97184.50
2019-02-17T15:47:45.253Z,97181.25
2019-02-17T15:50:16.065Z,97178.66
2019-02-17T15:52:46.586Z,97171.63
2019-02-17T15:55:17.062Z,97176.78
2019-02-17T15:57:49.054Z,97174.16
2019-02-17T16:00:19.679Z,97172.84
2019-02-17T16:02:50.145Z,97174.51
2019-02-17T16:05:20.652Z,97176.50
2019-02-17T16:07:54.635Z,97168.89
2019-02-17T16:10:27.393Z,97170.34
2019-02-17T16:12:57.831Z,97163.98
2019-02-17T16:15:28.174Z,97163.81
2019-02-17T16:17:58.699Z,97162.20
2019-02-17T16:20:29.134Z,97164.85
2019-02-17T16:22:59.629Z,97155.38
2019-02-17T16:25:30.168Z,97168.13
2019-02-17T16:28:00.720Z,97158.97
2019-02-17T16:30:31.216Z,97160.92
2019-02-17T16:33:01.644Z,97166.47
2019-02-17T16:35:32.124Z,97163.83
2019-02-17T16:38:02.534Z,97157.91
2019-02-17T16:40:33.107Z,97162.80
2019-02-17T16:43:03.581Z,97164.53
2019-02-17T16:45:34.137Z,97164.00
2019-02-17T16:48:04.597Z,97168.55
2019-02-17T16:50:35.042Z,97170.77
2019-02-17T16:53:06.725Z,97166.84
2019-02-17T16:55:37.172Z,97163.20
2019-02-17T16:58:07.888Z,97161.52
2019-02-17T17:00:38.925Z,97169.98
2019-02-17T17:03:09.542Z,97167.83
2019-02-17T17:05:40.169Z,97173.45
2019-02-17T17:08:11.538Z,97172.73
2019-02-17T17:10:42.071Z,97178.50
2019-02-17T17:13:12.682Z,97179.03
2019-02-17T17:15:43.189Z,97179.56
2019-02-17T17:18:13.721Z,97191.52
2019-02-17T17:20:45.264Z,97184.39
2019-02-17T17:23:15.812Z,97189.32
2019-02-17T17:25:46.249Z,97195.03
2019-02-17T17:28:16.839Z,97189.65
2019-02-17T17:30:48.217Z,97193.42
2019-02-17T17:33:18.810Z,97198.53
2019-02-17T17:35:49.436Z,97199.95
2019-02-17T17:38:20.003Z,97196.92
2019-02-17T17:40:50.452Z,97196.75
2019-02-17T17:43:22.167Z,97201.45
2019-02-17T17:45:53.116Z,97200.58
2019-02-17T17:48:24.643Z,97205.48
2019-02-17T17:50:55.360Z,97215.06
2019-02-17T17:53:28.973Z,97206.89
2019-02-17T17:55:59.440Z,97209.02
2019-02-17T17:58:29.976Z,97201.70
2019-02-17T18:01:00.506Z,97206.50
2019-02-17T18:03:30.848Z,97216.97
2019-02-17T18:06:01.565Z,97214.47
2019-02-17T18:08:32.590Z,97220.92
2019-02-17T18:11:03.242Z,97219.52
2019-02-17T18:13:33.663Z,97208.16
2019-02-17T18:16:04.091Z,97212.28
2019-02-17T18:18:34.461Z,97209.44
2019-02-17T18:21:04.898Z,97216.11
2019-02-17T18:23:35.373Z,97214.05
2019-02-17T18:26:05.805Z,97218.57
2019-02-17T18:28:36.270Z,97214.50
2019-02-17T18:31:06.683Z,97214.42
2019-02-17T18:33:37.482Z,97217.55
2019-02-17T18:36:07.885Z,97207.67
2019-02-17T18:38:38.524Z,97206.39
2019-02-17T18:41:09.001Z,97209.78
2019-02-17T18:43:39.340Z,97200.16
2019-02-17T18:46:09.911Z,97207.63
2019-02-17T18:48:40.433Z,97213.34
2019-02-17T18:51:11.097Z,97211.56
2019-02-17T18:53:41.546Z,97211.13
2019-02-17T18:56:12.074Z,97210.22
2019-02-17T18:58:43.028Z,97209.76
2019-02-17T19:01:13.663Z,97208.97
2019-02-17T19:03:44.129Z,97213.72
2019-02-17T19:06:14.554Z,97213.88
2019-02-17T19:08:45.093Z,97207.21
2019-02-17T19:11:18.631Z,97212.88
2019-02-17T19:13:47.890Z,97208.27
2019-02-17T19:16:19.970Z,97217.49
2019-02-17T19:18:53.420Z,97213.63
2019-02-17T19:21:24.216Z,97223.23
2019-02-17T19:23:55.774Z,97216.50
2019-02-17T19:26:26.273Z,97219.85
2019-02-17T19:28:56.649Z,97220.67
2019-02-17T19:31:38.881Z,97218.09
2019-02-17T19:34:15.726Z,97215.97
2019-02-17T19:36:46.232Z,97208.00
2019-02-17T19:39:16.633Z,97218.13
2019-02-17T19:41:47.119Z,97212.16
2019-02-17T19:44:17.617Z,97211.44
2019-02-17T19:46:49.877Z,97209.78
2019-02-17T19:49:21.002Z,97215.09
2019-02-17T19:51:52.128Z,97215.58
2019-02-17T19:54:25.963Z,97210.30
2019-02-17T19:57:00.943Z,97218.30
2019-02-17T19:59:31.753Z,97218.42
2019-02-17T20:02:03.726Z,97217.84
2019-02-17T20:04:42.693Z,97215.47
2019-02-17T20:07:16.541Z,97216.77
2019-02-17T20:09:54.008Z,97219.61
2019-02-17T20:12:27.963Z,97217.02
2019-02-17T20:15:04.467Z,97215.95
2019-02-17T20:17:40.863Z,97213.72
2019-02-17T20:20:14.137Z,97211.23
2019-02-17T20:22:47.319Z,97210.55
2019-02-17T20:25:21.375Z,97208.19
2019-02-17T20:27:53.055Z,97208.44
2019-02-17T20:30:23.566Z,97210.66
2019-02-17T20:32:53.876Z,97213.47
2019-02-17T20:35:24.439Z,97207.93
2019-02-17T20:37:54.856Z,97206.28
2019-02-17T20:40:25.281Z,97218.50
2019-02-17T20:42:55.706Z,97220.75
2019-02-17T20:45:26.264Z,97218.73
2019-02-17T20:47:56.729Z,97216.97
2019-02-17T20:50:27.175Z,97213.19
2019-02-17T20:52:57.704Z,97212.83
2019-02-17T20:55:28.160Z,97215.05
2019-02-17T20:57:58.778Z,97209.41
2019-02-17T21:00:29.460Z,97201.40
2019-02-17T21:02:59.870Z,97204.69
2019-02-17T21:05:30.233Z,97205.14
2019-02-17T21:08:00.699Z,97207.27
2019-02-17T21:10:31.059Z,97208.31
2019-02-17T21:13:01.357Z,97202.56
2019-02-17T21:15:32.067Z,97205.63
2019-02-17T21:18:02.499Z,97196.66
2019-02-17T21:20:34.323Z,97200.27
2019-02-17T21:23:04.964Z,97199.31
2019-02-17T21:25:35.379Z,97208.70
2019-02-17T21:28:07.312Z,97204.92
2019-02-17T21:30:39.800Z,97203.06
2019-02-17T21:33:11.899Z,97202.00
2019-02-17T21:35:44.600Z,97208.48
2019-02-17T21:38:17.156Z,97201.89
2019-02-17T21:40:47.661Z,97211.39
2019-02-17T21:43:18.130Z,97213.94
2019-02-17T21:45:48.564Z,97212.13
2019-02-17T21:48:18.947Z,97206.95
2019-02-17T21:50:49.367Z,97210.27
2019-02-17T21:53:20.781Z,97212.84
2019-02-17T21:55:51.461Z,97206.73
2019-02-17T21:58:21.808Z,97211.20
2019-02-17T22:00:52.283Z,97204.13
2019-02-17T22:03:22.863Z,97211.43
2019-02-17T22:05:53.297Z,97207.55
2019-02-17T22:08:23.765Z,97210.12
2019-02-17T22:10:54.790Z,97211.52
2019-02-17T22:13:25.222Z,97214.53
2019-02-17T22:15:55.659Z,97205.00
2019-02-17T22:18:26.299Z,97206.13
2019-02-17T22:20:56.728Z,97204.55
2019-02-17T22:23:27.157Z,97201.71
2019-02-17T22:25:57.584Z,97197.61
2019-02-17T22:28:28.256Z,97198.20
2019-02-17T22:30:58.760Z,97191.58
2019-02-17T22:33:29.187Z,97192.52
2019-02-17T22:35:59.695Z,97198.27
2019-02-17T22:38:30.192Z,97200.12
2019-02-17T22:41:00.631Z,97193.88
2019-02-17T22:43:31.051Z,97191.16
2019-02-17T22:46:01.544Z,97196.55
2019-02-17T22:48:32.009Z,97187.72
2019-02-17T22:51:02.453Z,97189.70
2019-02-17T22:53:43.075Z,97182.98
2019-02-17T22:56:05.038Z,97183.34
2019-02-17T22:58:35.595Z,97184.47
2019-02-17T23:01:10.838Z,97184.70
2019-02-17T23:03:41.308Z,97181.63
2019-02-17T23:06:11.882Z,97186.78
2019-02-17T23:08:42.395Z,97186.05
2019-02-17T23:11:12.833Z,97188.87
2019-02-17T23:13:43.337Z,97187.30
2019-02-17T23:16:13.792Z,97190.41
2019-02-17T23:18:44.678Z,97186.17
2019-02-17T23:21:15.193Z,97192.62
2019-02-17T23:23:45.521Z,97194.84
2019-02-17T23:26:15.909Z,97186.95
2019-02-17T23:28:46.573Z,97191.16
2019-02-17T23:31:21.288Z,97195.68
2019-02-17T23:33:51.604Z,97188.86
2019-02-17T23:36:22.036Z,97194.25
2019-02-17T23:38:52.531Z,97188.77
2019-02-17T23:41:22.793Z,97190.06
2019-02-17T23:43:53.196Z,97194.34
2019-02-17T23:46:23.625Z,97191.35
2019-02-17T23:48:54.057Z,97191.81
2019-02-17T23:51:24.538Z,97181.50
2019-02-17T23:53:54.973Z,97182.91
2019-02-17T23:56:25.434Z,97187.53
2019-02-17T23:58:55.853Z,97182.14
